Harristown, IL (62537)

7:28 AM CDT on July 07, 2015 (GMT -0500)
Home Park and Oaklawn Drive | | Change Station
CLOSE
Current Station
Personal Weather Station
Location: Decatur, IL
Elevation: 686 ft
Nearby Weather Stations

Elev 686 ft 39.86 °N, 88.99 °W | Updated 1 minute ago

Rain
Rain
71.6 °F
Feels Like 71.6 °F
N
0.0
Wind Variable Wind from WSW

Today
High -- | Low -- °F
--% Chance of Precip.
Yesterday
High -- | Low -- °F
Precip. -- in
5:34 AM 8:27 PM
Waning Gibbous, 65% visible
Pressure 29.87 in
Visibility 9.0 miles
Clouds Few 800 ft
Few 11000 ft
Dew Point 71 °F
Humidity 99%
Rainfall 1.71 in
Snow Depth Not available.
UV 1 out of 12
Pollen .50 out of 12
Air Quality Not available.
Flu Activity Not available.
METAR KDEC 071154Z 14003KT 9SM -RA FEW008 FEW110 22/21 A2988 RMK AO2 SLP114 P0005 60102 70102 T02220211 10250 20222 52003

More Conditions Fewer Conditions

Pressure 29.87 in
Visibility 9.0 miles
Clouds Few 800 ft
Few 11000 ft
Dew Point 71 °F
Humidity 99%
Rainfall 1.71 in
Snow Depth Not available.
UV 1 out of 12
Pollen .50 out of 12
Air Quality Not available.
Flu Activity Not available.
METAR KDEC 071154Z 14003KT 9SM -RA FEW008 FEW110 22/21 A2988 RMK AO2 SLP114 P0005 60102 70102 T02220211 10250 20222 52003

More Conditions Fewer Conditions

10-Day Weather Forecast

×

Almanac

Astronomy

Jul. 07, 2015 Rise Set
Actual Time
Civil Twilight
Nautical Twilight
Astronomical Twilight
Moon
Length of Visible Light
Length of Day
Tomorrow will be .
, % of the Moon is Illuminated

Today's Extremes

State Highs State Lows

Community

WunderPhotos

Upload Photos

1,835,785 photos uploaded!

WunderBlogs® & News

Nearby

Air Quality

  Air Quality AQ Index Pollutant
Not available.

Snow Depth

Station Depth Elevation

Earthquake Activity

City Distance Mag. Time & Date
Minimum magnitude displayed is 2.5.

Coastal Water Temperatures

Place Temperature

Stations

Nearby Weather Stations

Station Location Temp. Windchill Dew Point Humidity Wind Precip. Elev Updated Type